sensor_id;sensor_type;location;lat;lon;timestamp;temperature;humidity
16172;DHT22;8192;53.596;10.166;2023-07-13T00:01:45;15.30;99.90
16172;DHT22;8192;53.596;10.166;2023-07-13T00:04:20;15.30;99.90
16172;DHT22;8192;53.596;10.166;2023-07-13T00:06:48;15.30;99.90
16172;DHT22;8192;53.596;10.166;2023-07-13T00:09:17;15.30;99.90
16172;DHT22;8192;53.596;10.166;2023-07-13T00:11:44;15.10;99.90
16172;DHT22;8192;53.596;10.166;2023-07-13T00:14:13;15.00;99.90
16172;DHT22;8192;53.596;10.166;2023-07-13T00:16:41;14.90;99.90
16172;DHT22;8192;53.596;10.166;2023-07-13T00:19:09;14.80;99.90
16172;DHT22;8192;53.596;10.166;2023-07-13T00:21:38;14.80;99.90
16172;DHT22;8192;53.596;10.166;2023-07-13T00:24:05;14.70;99.90
16172;DHT22;8192;53.596;10.166;2023-07-13T00:26:33;14.60;99.90
16172;DHT22;8192;53.596;10.166;2023-07-13T00:29:00;14.50;99.90
16172;DHT22;8192;53.596;10.166;2023-07-13T00:31:27;14.50;99.90
16172;DHT22;8192;53.596;10.166;2023-07-13T00:33:54;14.50;99.90
16172;DHT22;8192;53.596;10.166;2023-07-13T00:36:21;14.40;99.90
16172;DHT22;8192;53.596;10.166;2023-07-13T00:38:49;14.40;99.90
16172;DHT22;8192;53.596;10.166;2023-07-13T00:41:16;14.30;99.90
16172;DHT22;8192;53.596;10.166;2023-07-13T00:43:44;14.20;99.90
16172;DHT22;8192;53.596;10.166;2023-07-13T00:46:22;14.20;99.90
16172;DHT22;8192;53.596;10.166;2023-07-13T00:48:50;14.00;99.90
16172;DHT22;8192;53.596;10.166;2023-07-13T00:51:24;13.90;99.90
16172;DHT22;8192;53.596;10.166;2023-07-13T00:53:54;13.70;99.90
16172;DHT22;8192;53.596;10.166;2023-07-13T00:56:23;13.60;99.90
16172;DHT22;8192;53.596;10.166;2023-07-13T00:58:50;13.60;99.90
16172;DHT22;8192;53.596;10.166;2023-07-13T01:01:19;13.50;99.90
16172;DHT22;8192;53.596;10.166;2023-07-13T01:03:46;13.50;99.90
16172;DHT22;8192;53.596;10.166;2023-07-13T01:06:14;13.40;99.90
16172;DHT22;8192;53.596;10.166;2023-07-13T01:08:43;13.40;99.90
16172;DHT22;8192;53.596;10.166;2023-07-13T01:11:11;13.40;99.90
16172;DHT22;8192;53.596;10.166;2023-07-13T01:13:38;13.40;99.90
16172;DHT22;8192;53.596;10.166;2023-07-13T01:16:13;13.30;99.90
16172;DHT22;8192;53.596;10.166;2023-07-13T01:18:41;13.20;99.90
16172;DHT22;8192;53.596;10.166;2023-07-13T01:21:10;13.30;99.90
16172;DHT22;8192;53.596;10.166;2023-07-13T01:23:37;13.20;99.90
16172;DHT22;8192;53.596;10.166;2023-07-13T01:26:04;13.20;99.90
16172;DHT22;8192;53.596;10.166;2023-07-13T01:28:31;13.20;99.90
16172;DHT22;8192;53.596;10.166;2023-07-13T01:31:03;13.20;99.90
16172;DHT22;8192;53.596;10.166;2023-07-13T01:33:30;13.20;99.90
16172;DHT22;8192;53.596;10.166;2023-07-13T01:35:57;13.30;99.90
16172;DHT22;8192;53.596;10.166;2023-07-13T01:38:26;13.40;99.90
16172;DHT22;8192;53.596;10.166;2023-07-13T01:40:54;13.30;99.90
16172;DHT22;8192;53.596;10.166;2023-07-13T01:43:21;13.30;99.90
16172;DHT22;8192;53.596;10.166;2023-07-13T01:45:48;13.20;99.90
16172;DHT22;8192;53.596;10.166;2023-07-13T01:48:15;13.20;99.90
16172;DHT22;8192;53.596;10.166;2023-07-13T01:50:41;13.10;99.90
16172;DHT22;8192;53.596;10.166;2023-07-13T01:53:11;13.10;99.90
16172;DHT22;8192;53.596;10.166;2023-07-13T01:55:39;13.00;99.90
16172;DHT22;8192;53.596;10.166;2023-07-13T01:58:06;13.00;99.90
16172;DHT22;8192;53.596;10.166;2023-07-13T02:00:33;13.10;99.90
16172;DHT22;8192;53.596;10.166;2023-07-13T02:03:00;13.20;99.90
16172;DHT22;8192;53.596;10.166;2023-07-13T02:05:28;13.20;99.90
16172;DHT22;8192;53.596;10.166;2023-07-13T02:07:55;13.10;99.90
16172;DHT22;8192;53.596;10.166;2023-07-13T02:10:22;13.10;99.90
16172;DHT22;8192;53.596;10.166;2023-07-13T02:12:50;13.10;99.90
16172;DHT22;8192;53.596;10.166;2023-07-13T02:15:18;13.10;99.90
16172;DHT22;8192;53.596;10.166;2023-07-13T02:17:45;13.00;99.90
16172;DHT22;8192;53.596;10.166;2023-07-13T02:20:12;13.00;99.90
16172;DHT22;8192;53.596;10.166;2023-07-13T02:22:39;13.00;99.90
16172;DHT22;8192;53.596;10.166;2023-07-13T02:25:06;13.00;99.90
16172;DHT22;8192;53.596;10.166;2023-07-13T02:27:33;13.00;99.90
16172;DHT22;8192;53.596;10.166;2023-07-13T02:30:02;12.90;99.90
16172;DHT22;8192;53.596;10.166;2023-07-13T02:32:29;12.90;99.90
16172;DHT22;8192;53.596;10.166;2023-07-13T02:34:56;13.00;99.90
16172;DHT22;8192;53.596;10.166;2023-07-13T02:37:23;12.90;99.90
16172;DHT22;8192;53.596;10.166;2023-07-13T02:39:50;13.00;99.90
16172;DHT22;8192;53.596;10.166;2023-07-13T02:42:17;13.10;99.90
16172;DHT22;8192;53.596;10.166;2023-07-13T02:44:43;13.10;99.90
16172;DHT22;8192;53.596;10.166;2023-07-13T02:47:16;13.10;99.90
16172;DHT22;8192;53.596;10.166;2023-07-13T02:49:43;13.10;99.90
16172;DHT22;8192;53.596;10.166;2023-07-13T02:52:10;13.10;99.90
16172;DHT22;8192;53.596;10.166;2023-07-13T02:54:37;13.20;99.90
16172;DHT22;8192;53.596;10.166;2023-07-13T02:57:05;13.30;99.90
16172;DHT22;8192;53.596;10.166;2023-07-13T02:59:32;13.30;99.90
16172;DHT22;8192;53.596;10.166;2023-07-13T03:02:00;13.40;99.90
16172;DHT22;8192;53.596;10.166;2023-07-13T03:04:29;13.30;99.90
16172;DHT22;8192;53.596;10.166;2023-07-13T03:06:56;13.20;99.90
16172;DHT22;8192;53.596;10.166;2023-07-13T03:09:24;13.20;99.90
16172;DHT22;8192;53.596;10.166;2023-07-13T03:11:53;13.20;99.90
16172;DHT22;8192;53.596;10.166;2023-07-13T03:14:21;13.20;99.90
16172;DHT22;8192;53.596;10.166;2023-07-13T03:16:48;13.20;99.90
16172;DHT22;8192;53.596;10.166;2023-07-13T03:19:15;13.20;99.90
16172;DHT22;8192;53.596;10.166;2023-07-13T03:21:44;13.20;99.90
16172;DHT22;8192;53.596;10.166;2023-07-13T03:24:11;13.20;99.90
16172;DHT22;8192;53.596;10.166;2023-07-13T03:26:38;13.20;99.90
16172;DHT22;8192;53.596;10.166;2023-07-13T03:29:06;13.20;99.90
16172;DHT22;8192;53.596;10.166;2023-07-13T03:31:35;13.30;99.90
16172;DHT22;8192;53.596;10.166;2023-07-13T03:34:02;13.30;99.90
16172;DHT22;8192;53.596;10.166;2023-07-13T03:36:31;13.30;99.90
16172;DHT22;8192;53.596;10.166;2023-07-13T03:39:03;13.40;99.90
16172;DHT22;8192;53.596;10.166;2023-07-13T03:41:34;13.40;99.90
16172;DHT22;8192;53.596;10.166;2023-07-13T03:44:01;13.50;99.90
16172;DHT22;8192;53.596;10.166;2023-07-13T03:46:28;13.50;99.90
16172;DHT22;8192;53.596;10.166;2023-07-13T03:48:55;13.50;99.90
16172;DHT22;8192;53.596;10.166;2023-07-13T03:51:22;13.50;99.90
16172;DHT22;8192;53.596;10.166;2023-07-13T03:53:49;13.60;99.90
16172;DHT22;8192;53.596;10.166;2023-07-13T03:56:18;13.60;99.90
16172;DHT22;8192;53.596;10.166;2023-07-13T03:58:47;13.70;99.90
16172;DHT22;8192;53.596;10.166;2023-07-13T04:01:16;13.70;99.90
16172;DHT22;8192;53.596;10.166;2023-07-13T04:03:43;13.80;99.90
16172;DHT22;8192;53.596;10.166;2023-07-13T04:06:15;13.90;99.90
16172;DHT22;8192;53.596;10.166;2023-07-13T04:08:47;14.20;99.90
16172;DHT22;8192;53.596;10.166;2023-07-13T04:11:17;14.50;99.90
16172;DHT22;8192;53.596;10.166;2023-07-13T04:13:45;15.00;99.90
16172;DHT22;8192;53.596;10.166;2023-07-13T04:16:12;15.40;99.90
16172;DHT22;8192;53.596;10.166;2023-07-13T04:18:39;15.70;99.90
16172;DHT22;8192;53.596;10.166;2023-07-13T04:21:07;16.10;99.90
16172;DHT22;8192;53.596;10.166;2023-07-13T04:23:35;16.40;99.90
16172;DHT22;8192;53.596;10.166;2023-07-13T04:26:02;16.60;99.90
16172;DHT22;8192;53.596;10.166;2023-07-13T04:28:31;16.90;99.90
16172;DHT22;8192;53.596;10.166;2023-07-13T04:30:58;16.70;99.90
16172;DHT22;8192;53.596;10.166;2023-07-13T04:33:27;16.40;99.90
16172;DHT22;8192;53.596;10.166;2023-07-13T04:35:55;16.50;99.90
16172;DHT22;8192;53.596;10.166;2023-07-13T04:38:23;16.80;99.90
16172;DHT22;8192;53.596;10.166;2023-07-13T04:40:51;17.00;99.90
16172;DHT22;8192;53.596;10.166;2023-07-13T04:43:19;17.10;99.70
16172;DHT22;8192;53.596;10.166;2023-07-13T04:45:47;17.50;99.90
16172;DHT22;8192;53.596;10.166;2023-07-13T04:48:14;18.10;96.90
16172;DHT22;8192;53.596;10.166;2023-07-13T04:50:41;18.30;95.50
16172;DHT22;8192;53.596;10.166;2023-07-13T04:53:09;18.80;96.70
16172;DHT22;8192;53.596;10.166;2023-07-13T04:55:36;19.20;94.40
16172;DHT22;8192;53.596;10.166;2023-07-13T04:58:04;19.50;93.50
16172;DHT22;8192;53.596;10.166;2023-07-13T05:00:31;19.70;93.10
16172;DHT22;8192;53.596;10.166;2023-07-13T05:03:06;20.10;92.20
16172;DHT22;8192;53.596;10.166;2023-07-13T05:05:33;20.30;90.60
16172;DHT22;8192;53.596;10.166;2023-07-13T05:08:01;20.20;87.80
16172;DHT22;8192;53.596;10.166;2023-07-13T05:10:28;20.20;89.90
16172;DHT22;8192;53.596;10.166;2023-07-13T05:12:55;20.30;88.50
16172;DHT22;8192;53.596;10.166;2023-07-13T05:15:23;20.30;90.10
16172;DHT22;8192;53.596;10.166;2023-07-13T05:17:51;20.80;87.70
16172;DHT22;8192;53.596;10.166;2023-07-13T05:20:20;20.90;88.20
16172;DHT22;8192;53.596;10.166;2023-07-13T05:22:47;21.10;82.70
16172;DHT22;8192;53.596;10.166;2023-07-13T05:25:14;20.90;87.60
16172;DHT22;8192;53.596;10.166;2023-07-13T05:27:41;21.30;84.00
16172;DHT22;8192;53.596;10.166;2023-07-13T05:30:11;21.00;84.40
16172;DHT22;8192;53.596;10.166;2023-07-13T05:32:38;21.10;82.90
16172;DHT22;8192;53.596;10.166;2023-07-13T05:35:07;21.30;86.80
16172;DHT22;8192;53.596;10.166;2023-07-13T05:37:36;21.80;81.00
16172;DHT22;8192;53.596;10.166;2023-07-13T05:40:05;22.10;78.60
16172;DHT22;8192;53.596;10.166;2023-07-13T05:42:32;22.20;84.00
16172;DHT22;8192;53.596;10.166;2023-07-13T05:44:59;22.80;80.30
16172;DHT22;8192;53.596;10.166;2023-07-13T05:47:26;22.80;76.10
16172;DHT22;8192;53.596;10.166;2023-07-13T05:49:53;23.40;78.60
16172;DHT22;8192;53.596;10.166;2023-07-13T05:52:20;23.20;77.90
16172;DHT22;8192;53.596;10.166;2023-07-13T05:54:48;22.50;76.60
16172;DHT22;8192;53.596;10.166;2023-07-13T05:57:15;21.40;78.70
16172;DHT22;8192;53.596;10.166;2023-07-13T05:59:42;20.50;85.50
16172;DHT22;8192;53.596;10.166;2023-07-13T06:02:10;20.20;87.50
16172;DHT22;8192;53.596;10.166;2023-07-13T06:04:37;19.80;90.00
16172;DHT22;8192;53.596;10.166;2023-07-13T06:07:04;19.40;89.30
16172;DHT22;8192;53.596;10.166;2023-07-13T06:09:31;19.00;90.60
16172;DHT22;8192;53.596;10.166;2023-07-13T06:12:00;18.90;91.30
16172;DHT22;8192;53.596;10.166;2023-07-13T06:14:27;19.10;91.60
16172;DHT22;8192;53.596;10.166;2023-07-13T06:16:53;19.20;91.30
16172;DHT22;8192;53.596;10.166;2023-07-13T06:19:20;19.20;91.20
16172;DHT22;8192;53.596;10.166;2023-07-13T06:21:47;19.30;92.10
16172;DHT22;8192;53.596;10.166;2023-07-13T06:24:14;19.60;91.00
16172;DHT22;8192;53.596;10.166;2023-07-13T06:26:41;19.80;89.10
16172;DHT22;8192;53.596;10.166;2023-07-13T06:29:09;19.80;90.60
16172;DHT22;8192;53.596;10.166;2023-07-13T06:31:36;19.70;88.80
16172;DHT22;8192;53.596;10.166;2023-07-13T06:34:03;19.60;88.10
16172;DHT22;8192;53.596;10.166;2023-07-13T06:36:31;19.40;89.20
16172;DHT22;8192;53.596;10.166;2023-07-13T06:38:58;19.20;89.80
16172;DHT22;8192;53.596;10.166;2023-07-13T06:41:25;19.00;89.10
16172;DHT22;8192;53.596;10.166;2023-07-13T06:43:53;19.00;90.60
16172;DHT22;8192;53.596;10.166;2023-07-13T06:46:23;19.00;90.00
16172;DHT22;8192;53.596;10.166;2023-07-13T06:48:50;18.80;89.80
16172;DHT22;8192;53.596;10.166;2023-07-13T06:51:17;19.00;90.50
16172;DHT22;8192;53.596;10.166;2023-07-13T06:53:44;19.10;88.90
16172;DHT22;8192;53.596;10.166;2023-07-13T06:56:11;19.10;90.60
16172;DHT22;8192;53.596;10.166;2023-07-13T06:58:38;19.20;89.60
16172;DHT22;8192;53.596;10.166;2023-07-13T07:01:05;19.20;89.30
16172;DHT22;8192;53.596;10.166;2023-07-13T07:03:33;19.30;87.00
16172;DHT22;8192;53.596;10.166;2023-07-13T07:06:01;19.20;88.70
16172;DHT22;8192;53.596;10.166;2023-07-13T07:08:28;19.10;89.40
16172;DHT22;8192;53.596;10.166;2023-07-13T07:10:55;19.20;90.70
16172;DHT22;8192;53.596;10.166;2023-07-13T07:13:22;19.50;89.40
16172;DHT22;8192;53.596;10.166;2023-07-13T07:15:50;19.50;87.10
16172;DHT22;8192;53.596;10.166;2023-07-13T07:18:18;19.60;86.00
16172;DHT22;8192;53.596;10.166;2023-07-13T07:20:46;19.60;88.70
16172;DHT22;8192;53.596;10.166;2023-07-13T07:23:13;19.60;88.90
16172;DHT22;8192;53.596;10.166;2023-07-13T07:25:43;19.80;87.30
16172;DHT22;8192;53.596;10.166;2023-07-13T07:28:11;20.10;85.70
16172;DHT22;8192;53.596;10.166;2023-07-13T07:30:41;20.40;86.60
16172;DHT22;8192;53.596;10.166;2023-07-13T07:33:09;20.90;84.00
16172;DHT22;8192;53.596;10.166;2023-07-13T07:35:36;21.30;81.60
16172;DHT22;8192;53.596;10.166;2023-07-13T07:38:05;21.70;78.40
16172;DHT22;8192;53.596;10.166;2023-07-13T07:40:37;22.30;77.90
16172;DHT22;8192;53.596;10.166;2023-07-13T07:43:04;23.00;76.90
16172;DHT22;8192;53.596;10.166;2023-07-13T07:45:31;23.30;75.50
16172;DHT22;8192;53.596;10.166;2023-07-13T07:47:58;23.50;71.20
16172;DHT22;8192;53.596;10.166;2023-07-13T07:50:25;23.60;70.70
16172;DHT22;8192;53.596;10.166;2023-07-13T07:52:52;23.60;69.90
16172;DHT22;8192;53.596;10.166;2023-07-13T07:55:23;23.70;69.60
16172;DHT22;8192;53.596;10.166;2023-07-13T07:57:52;23.40;72.70
16172;DHT22;8192;53.596;10.166;2023-07-13T08:00:19;23.50;69.90
16172;DHT22;8192;53.596;10.166;2023-07-13T08:02:47;23.20;71.90
16172;DHT22;8192;53.596;10.166;2023-07-13T08:05:14;22.10;74.50
16172;DHT22;8192;53.596;10.166;2023-07-13T08:07:42;22.10;77.20
16172;DHT22;8192;53.596;10.166;2023-07-13T08:10:10;22.20;75.00
16172;DHT22;8192;53.596;10.166;2023-07-13T08:12:39;22.20;76.20
16172;DHT22;8192;53.596;10.166;2023-07-13T08:15:10;22.00;78.90
16172;DHT22;8192;53.596;10.166;2023-07-13T08:17:38;22.20;78.90
16172;DHT22;8192;53.596;10.166;2023-07-13T08:20:06;23.50;73.70
16172;DHT22;8192;53.596;10.166;2023-07-13T08:22:33;23.50;69.50
16172;DHT22;8192;53.596;10.166;2023-07-13T08:25:00;24.00;68.80
16172;DHT22;8192;53.596;10.166;2023-07-13T08:27:28;24.00;68.60
16172;DHT22;8192;53.596;10.166;2023-07-13T08:29:56;23.40;66.90
16172;DHT22;8192;53.596;10.166;2023-07-13T08:32:24;22.90;74.50
16172;DHT22;8192;53.596;10.166;2023-07-13T08:34:53;23.00;75.60
16172;DHT22;8192;53.596;10.166;2023-07-13T08:37:20;22.90;70.60
16172;DHT22;8192;53.596;10.166;2023-07-13T08:39:47;22.70;75.60
16172;DHT22;8192;53.596;10.166;2023-07-13T08:42:20;23.50;69.40
16172;DHT22;8192;53.596;10.166;2023-07-13T08:44:53;23.30;69.10
16172;DHT22;8192;53.596;10.166;2023-07-13T08:47:24;23.40;70.60
16172;DHT22;8192;53.596;10.166;2023-07-13T08:49:51;22.70;72.70
16172;DHT22;8192;53.596;10.166;2023-07-13T08:52:29;22.00;73.60
16172;DHT22;8192;53.596;10.166;2023-07-13T08:55:04;21.70;77.00
16172;DHT22;8192;53.596;10.166;2023-07-13T08:57:34;21.50;77.00
16172;DHT22;8192;53.596;10.166;2023-07-13T09:00:01;21.70;78.00
16172;DHT22;8192;53.596;10.166;2023-07-13T09:02:41;22.10;76.20
16172;DHT22;8192;53.596;10.166;2023-07-13T09:05:13;21.90;74.90
16172;DHT22;8192;53.596;10.166;2023-07-13T09:07:58;22.00;75.50
16172;DHT22;8192;53.596;10.166;2023-07-13T09:10:28;22.20;76.30
16172;DHT22;8192;53.596;10.166;2023-07-13T09:13:06;22.20;75.90
16172;DHT22;8192;53.596;10.166;2023-07-13T09:15:40;21.80;75.20
16172;DHT22;8192;53.596;10.166;2023-07-13T09:18:13;21.40;77.20
16172;DHT22;8192;53.596;10.166;2023-07-13T09:20:48;20.90;78.80
16172;DHT22;8192;53.596;10.166;2023-07-13T09:23:19;20.60;80.00
16172;DHT22;8192;53.596;10.166;2023-07-13T09:25:48;20.40;81.40
16172;DHT22;8192;53.596;10.166;2023-07-13T09:28:22;20.20;80.90
16172;DHT22;8192;53.596;10.166;2023-07-13T09:30:52;20.60;83.00
16172;DHT22;8192;53.596;10.166;2023-07-13T09:33:23;21.10;77.70
16172;DHT22;8192;53.596;10.166;2023-07-13T09:35:54;21.50;75.30
16172;DHT22;8192;53.596;10.166;2023-07-13T09:38:24;22.00;78.60
16172;DHT22;8192;53.596;10.166;2023-07-13T09:41:01;22.00;72.70
16172;DHT22;8192;53.596;10.166;2023-07-13T09:43:34;21.80;77.00
16172;DHT22;8192;53.596;10.166;2023-07-13T09:46:01;21.90;75.10
16172;DHT22;8192;53.596;10.166;2023-07-13T09:48:35;21.80;74.50
16172;DHT22;8192;53.596;10.166;2023-07-13T09:51:10;22.00;75.80
16172;DHT22;8192;53.596;10.166;2023-07-13T09:53:41;21.90;71.90
16172;DHT22;8192;53.596;10.166;2023-07-13T09:56:19;21.60;75.00
16172;DHT22;8192;53.596;10.166;2023-07-13T09:58:46;21.80;73.10
16172;DHT22;8192;53.596;10.166;2023-07-13T10:01:13;21.60;72.40
16172;DHT22;8192;53.596;10.166;2023-07-13T10:03:53;21.80;72.90
16172;DHT22;8192;53.596;10.166;2023-07-13T10:06:22;21.90;72.10
16172;DHT22;8192;53.596;10.166;2023-07-13T10:08:50;22.10;70.90
16172;DHT22;8192;53.596;10.166;2023-07-13T10:11:20;22.60;70.70
16172;DHT22;8192;53.596;10.166;2023-07-13T10:13:51;22.50;67.10
16172;DHT22;8192;53.596;10.166;2023-07-13T10:16:19;22.40;67.00
16172;DHT22;8192;53.596;10.166;2023-07-13T10:18:49;22.00;67.40
16172;DHT22;8192;53.596;10.166;2023-07-13T10:21:20;21.90;71.10
16172;DHT22;8192;53.596;10.166;2023-07-13T10:23:53;21.80;70.00
16172;DHT22;8192;53.596;10.166;2023-07-13T10:26:23;21.50;70.00
16172;DHT22;8192;53.596;10.166;2023-07-13T10:28:54;21.50;72.40
16172;DHT22;8192;53.596;10.166;2023-07-13T10:31:22;21.30;70.70
16172;DHT22;8192;53.596;10.166;2023-07-13T10:33:50;21.40;72.40
16172;DHT22;8192;53.596;10.166;2023-07-13T10:36:27;21.20;72.50
16172;DHT22;8192;53.596;10.166;2023-07-13T10:38:58;21.20;69.20
16172;DHT22;8192;53.596;10.166;2023-07-13T10:41:28;21.30;69.40
16172;DHT22;8192;53.596;10.166;2023-07-13T10:43:58;21.40;69.50
16172;DHT22;8192;53.596;10.166;2023-07-13T10:46:27;21.70;69.40
16172;DHT22;8192;53.596;10.166;2023-07-13T10:48:59;22.00;71.00
16172;DHT22;8192;53.596;10.166;2023-07-13T10:51:41;22.00;69.10
16172;DHT22;8192;53.596;10.166;2023-07-13T10:54:19;22.40;69.90
16172;DHT22;8192;53.596;10.166;2023-07-13T10:56:50;22.40;66.00
16172;DHT22;8192;53.596;10.166;2023-07-13T10:59:20;22.60;68.10
16172;DHT22;8192;53.596;10.166;2023-07-13T11:01:55;22.70;64.30
16172;DHT22;8192;53.596;10.166;2023-07-13T11:04:24;22.90;66.00
16172;DHT22;8192;53.596;10.166;2023-07-13T11:06:57;22.90;64.90
16172;DHT22;8192;53.596;10.166;2023-07-13T11:09:37;23.00;62.00
16172;DHT22;8192;53.596;10.166;2023-07-13T11:12:48;23.00;61.30
16172;DHT22;8192;53.596;10.166;2023-07-13T11:15:28;23.10;58.90
16172;DHT22;8192;53.596;10.166;2023-07-13T11:17:56;22.70;62.40
16172;DHT22;8192;53.596;10.166;2023-07-13T11:20:33;22.90;62.80
16172;DHT22;8192;53.596;10.166;2023-07-13T11:23:17;23.00;62.10
16172;DHT22;8192;53.596;10.166;2023-07-13T11:25:45;23.00;62.40
16172;DHT22;8192;53.596;10.166;2023-07-13T11:28:21;22.90;59.00
16172;DHT22;8192;53.596;10.166;2023-07-13T11:30:59;22.80;59.50
16172;DHT22;8192;53.596;10.166;2023-07-13T11:33:44;23.00;60.60
16172;DHT22;8192;53.596;10.166;2023-07-13T11:36:14;23.50;61.30
16172;DHT22;8192;53.596;10.166;2023-07-13T11:38:45;24.00;61.40
16172;DHT22;8192;53.596;10.166;2023-07-13T11:41:15;24.20;60.20
16172;DHT22;8192;53.596;10.166;2023-07-13T11:43:44;24.00;57.10
16172;DHT22;8192;53.596;10.166;2023-07-13T11:46:15;23.60;58.70
16172;DHT22;8192;53.596;10.166;2023-07-13T11:48:44;23.50;59.30
16172;DHT22;8192;53.596;10.166;2023-07-13T11:51:18;23.30;58.30
16172;DHT22;8192;53.596;10.166;2023-07-13T11:53:50;23.20;60.40
16172;DHT22;8192;53.596;10.166;2023-07-13T11:56:18;22.80;58.80
16172;DHT22;8192;53.596;10.166;2023-07-13T11:58:48;22.50;59.30
16172;DHT22;8192;53.596;10.166;2023-07-13T12:01:20;22.50;60.80
16172;DHT22;8192;53.596;10.166;2023-07-13T12:03:49;22.20;62.10
16172;DHT22;8192;53.596;10.166;2023-07-13T12:06:26;22.00;62.20
16172;DHT22;8192;53.596;10.166;2023-07-13T12:08:58;22.10;64.70
16172;DHT22;8192;53.596;10.166;2023-07-13T12:11:26;22.20;63.70
16172;DHT22;8192;53.596;10.166;2023-07-13T12:13:54;22.40;63.90
16172;DHT22;8192;53.596;10.166;2023-07-13T12:16:26;22.40;63.20
16172;DHT22;8192;53.596;10.166;2023-07-13T12:18:54;22.30;62.00
16172;DHT22;8192;53.596;10.166;2023-07-13T12:21:26;22.10;61.60
16172;DHT22;8192;53.596;10.166;2023-07-13T12:23:57;21.90;61.80
16172;DHT22;8192;53.596;10.166;2023-07-13T12:26:23;21.80;63.90
16172;DHT22;8192;53.596;10.166;2023-07-13T12:28:53;21.50;64.20
16172;DHT22;8192;53.596;10.166;2023-07-13T12:31:40;21.00;66.20
16172;DHT22;8192;53.596;10.166;2023-07-13T12:34:09;20.10;71.00
16172;DHT22;8192;53.596;10.166;2023-07-13T12:36:41;18.70;81.70
16172;DHT22;8192;53.596;10.166;2023-07-13T12:39:16;17.00;92.70
16172;DHT22;8192;53.596;10.166;2023-07-13T12:41:44;16.20;97.30
16172;DHT22;8192;53.596;10.166;2023-07-13T12:44:13;15.80;99.20
16172;DHT22;8192;53.596;10.166;2023-07-13T12:46:52;15.70;99.90
16172;DHT22;8192;53.596;10.166;2023-07-13T12:49:24;15.60;99.90
16172;DHT22;8192;53.596;10.166;2023-07-13T12:51:56;15.70;99.90
16172;DHT22;8192;53.596;10.166;2023-07-13T12:54:27;15.90;99.90
16172;DHT22;8192;53.596;10.166;2023-07-13T12:56:55;16.10;99.90
16172;DHT22;8192;53.596;10.166;2023-07-13T12:59:25;16.40;99.90
16172;DHT22;8192;53.596;10.166;2023-07-13T13:01:55;16.90;99.90
16172;DHT22;8192;53.596;10.166;2023-07-13T13:04:22;17.30;99.20
16172;DHT22;8192;53.596;10.166;2023-07-13T13:07:01;17.60;98.60
16172;DHT22;8192;53.596;10.166;2023-07-13T13:09:29;18.00;97.40
16172;DHT22;8192;53.596;10.166;2023-07-13T13:11:56;18.30;98.20
16172;DHT22;8192;53.596;10.166;2023-07-13T13:14:23;18.50;95.80
16172;DHT22;8192;53.596;10.166;2023-07-13T13:16:52;18.70;96.20
16172;DHT22;8192;53.596;10.166;2023-07-13T13:19:21;19.00;94.90
16172;DHT22;8192;53.596;10.166;2023-07-13T13:21:50;18.90;93.30
16172;DHT22;8192;53.596;10.166;2023-07-13T13:24:19;18.70;95.20
16172;DHT22;8192;53.596;10.166;2023-07-13T13:26:49;18.60;95.30
16172;DHT22;8192;53.596;10.166;2023-07-13T13:29:17;18.50;96.40
16172;DHT22;8192;53.596;10.166;2023-07-13T13:31:45;18.70;95.20
16172;DHT22;8192;53.596;10.166;2023-07-13T13:34:14;18.80;95.80
16172;DHT22;8192;53.596;10.166;2023-07-13T13:36:42;19.30;97.30
16172;DHT22;8192;53.596;10.166;2023-07-13T13:39:20;19.60;92.10
16172;DHT22;8192;53.596;10.166;2023-07-13T13:41:51;19.60;92.50
16172;DHT22;8192;53.596;10.166;2023-07-13T13:44:18;19.60;92.50
16172;DHT22;8192;53.596;10.166;2023-07-13T13:46:48;19.70;94.90
16172;DHT22;8192;53.596;10.166;2023-07-13T13:49:19;19.90;92.60
16172;DHT22;8192;53.596;10.166;2023-07-13T13:51:46;19.90;88.10
16172;DHT22;8192;53.596;10.166;2023-07-13T13:54:15;19.90;90.20
16172;DHT22;8192;53.596;10.166;2023-07-13T13:56:43;19.90;90.70
16172;DHT22;8192;53.596;10.166;2023-07-13T13:59:12;19.60;90.10
16172;DHT22;8192;53.596;10.166;2023-07-13T14:01:40;19.60;92.40
16172;DHT22;8192;53.596;10.166;2023-07-13T14:04:14;19.70;93.30
16172;DHT22;8192;53.596;10.166;2023-07-13T14:06:42;19.60;89.70
16172;DHT22;8192;53.596;10.166;2023-07-13T14:09:10;19.50;90.90
16172;DHT22;8192;53.596;10.166;2023-07-13T14:11:39;19.30;90.80
16172;DHT22;8192;53.596;10.166;2023-07-13T14:14:11;19.40;91.80
16172;DHT22;8192;53.596;10.166;2023-07-13T14:16:41;19.50;92.30
16172;DHT22;8192;53.596;10.166;2023-07-13T14:19:12;19.60;93.00
16172;DHT22;8192;53.596;10.166;2023-07-13T14:21:39;19.80;92.10
16172;DHT22;8192;53.596;10.166;2023-07-13T14:24:07;19.90;89.70
16172;DHT22;8192;53.596;10.166;2023-07-13T14:26:37;20.00;90.50
16172;DHT22;8192;53.596;10.166;2023-07-13T14:29:10;20.20;86.80
16172;DHT22;8192;53.596;10.166;2023-07-13T14:31:40;20.20;90.20
16172;DHT22;8192;53.596;10.166;2023-07-13T14:34:08;20.10;89.70
16172;DHT22;8192;53.596;10.166;2023-07-13T14:36:39;19.90;88.40
16172;DHT22;8192;53.596;10.166;2023-07-13T14:39:12;19.70;87.00
16172;DHT22;8192;53.596;10.166;2023-07-13T14:41:39;19.70;88.00
16172;DHT22;8192;53.596;10.166;2023-07-13T14:44:11;19.60;90.40
16172;DHT22;8192;53.596;10.166;2023-07-13T14:46:39;19.80;90.20
16172;DHT22;8192;53.596;10.166;2023-07-13T14:49:13;20.00;90.60
16172;DHT22;8192;53.596;10.166;2023-07-13T14:51:41;20.30;88.60
16172;DHT22;8192;53.596;10.166;2023-07-13T14:54:09;20.70;87.90
16172;DHT22;8192;53.596;10.166;2023-07-13T14:56:37;21.20;85.00
16172;DHT22;8192;53.596;10.166;2023-07-13T14:59:04;21.10;85.20
16172;DHT22;8192;53.596;10.166;2023-07-13T15:01:33;21.00;86.20
16172;DHT22;8192;53.596;10.166;2023-07-13T15:04:00;20.40;85.80
16172;DHT22;8192;53.596;10.166;2023-07-13T15:06:30;20.10;85.70
16172;DHT22;8192;53.596;10.166;2023-07-13T15:08:58;19.90;85.70
16172;DHT22;8192;53.596;10.166;2023-07-13T15:11:25;19.70;87.60
16172;DHT22;8192;53.596;10.166;2023-07-13T15:13:52;19.80;89.50
16172;DHT22;8192;53.596;10.166;2023-07-13T15:16:22;19.80;90.20
16172;DHT22;8192;53.596;10.166;2023-07-13T15:18:50;19.70;89.70
16172;DHT22;8192;53.596;10.166;2023-07-13T15:21:21;19.90;88.90
16172;DHT22;8192;53.596;10.166;2023-07-13T15:23:51;20.20;87.20
16172;DHT22;8192;53.596;10.166;2023-07-13T15:26:19;20.20;87.00
16172;DHT22;8192;53.596;10.166;2023-07-13T15:28:47;20.20;85.70
16172;DHT22;8192;53.596;10.166;2023-07-13T15:31:20;20.10;86.70
16172;DHT22;8192;53.596;10.166;2023-07-13T15:33:49;20.00;86.40
16172;DHT22;8192;53.596;10.166;2023-07-13T15:36:17;20.10;86.00
16172;DHT22;8192;53.596;10.166;2023-07-13T15:38:45;20.10;85.50
16172;DHT22;8192;53.596;10.166;2023-07-13T15:41:29;20.00;86.30
16172;DHT22;8192;53.596;10.166;2023-07-13T15:43:58;20.00;85.60